sensor_id;sensor_type;location;lat;lon;timestamp;pressure;altitude;pressure_sealevel;temperature;humidity
21182;BME280;10749;46.296;7.524;2023-07-29T00:02:07;94633.03;;;24.06;35.75
21182;BME280;10749;46.296;7.524;2023-07-29T00:04:32;94633.53;;;24.08;35.84
21182;BME280;10749;46.296;7.524;2023-07-29T00:06:58;94630.56;;;24.04;35.86
21182;BME280;10749;46.296;7.524;2023-07-29T00:09:23;94623.25;;;24.00;36.16
21182;BME280;10749;46.296;7.524;2023-07-29T00:11:48;94618.38;;;23.91;36.56
21182;BME280;10749;46.296;7.524;2023-07-29T00:14:14;94618.91;;;23.83;36.56
21182;BME280;10749;46.296;7.524;2023-07-29T00:16:39;94614.03;;;23.85;36.17
21182;BME280;10749;46.296;7.524;2023-07-29T00:19:07;94611.88;;;23.87;35.75
21182;BME280;10749;46.296;7.524;2023-07-29T00:21:32;94602.72;;;23.88;36.06
21182;BME280;10749;46.296;7.524;2023-07-29T00:23:57;94599.44;;;23.86;36.52
21182;BME280;10749;46.296;7.524;2023-07-29T00:26:23;94595.94;;;23.86;36.58
21182;BME280;10749;46.296;7.524;2023-07-29T00:28:51;94592.97;;;23.82;36.73
21182;BME280;10749;46.296;7.524;2023-07-29T00:31:16;94600.25;;;23.77;36.87
21182;BME280;10749;46.296;7.524;2023-07-29T00:33:41;94603.75;;;23.72;36.29
21182;BME280;10749;46.296;7.524;2023-07-29T00:36:07;94596.97;;;23.65;36.74
21182;BME280;10749;46.296;7.524;2023-07-29T00:38:32;94607.53;;;23.71;36.46
21182;BME280;10749;46.296;7.524;2023-07-29T00:40:57;94614.56;;;23.72;36.19
21182;BME280;10749;46.296;7.524;2023-07-29T00:43:24;94615.38;;;23.68;35.64
21182;BME280;10749;46.296;7.524;2023-07-29T00:45:49;94616.19;;;23.68;35.29
21182;BME280;10749;46.296;7.524;2023-07-29T00:48:14;94614.00;;;23.65;35.34
21182;BME280;10749;46.296;7.524;2023-07-29T00:50:40;94616.41;;;23.62;35.97
21182;BME280;10749;46.296;7.524;2023-07-29T00:53:06;94617.22;;;23.52;36.18
21182;BME280;10749;46.296;7.524;2023-07-29T00:55:31;94622.59;;;23.47;36.87
21182;BME280;10749;46.296;7.524;2023-07-29T00:57:57;94620.66;;;23.42;36.84
21182;BME280;10749;46.296;7.524;2023-07-29T01:00:22;94629.31;;;23.44;36.49
21182;BME280;10749;46.296;7.524;2023-07-29T01:02:47;94641.44;;;23.42;36.70
21182;BME280;10749;46.296;7.524;2023-07-29T01:05:14;94634.41;;;23.41;37.43
21182;BME280;10749;46.296;7.524;2023-07-29T01:07:52;94632.78;;;23.40;37.44
21182;BME280;10749;46.296;7.524;2023-07-29T01:11:03;94630.34;;;23.38;37.49
21182;BME280;10749;46.296;7.524;2023-07-29T01:13:31;94631.69;;;23.36;37.45
21182;BME280;10749;46.296;7.524;2023-07-29T01:22:10;94618.69;;;23.28;37.58
21182;BME280;10749;46.296;7.524;2023-07-29T01:24:36;94619.25;;;23.30;37.53
21182;BME280;10749;46.296;7.524;2023-07-29T01:27:01;94613.88;;;23.35;37.25
21182;BME280;10749;46.296;7.524;2023-07-29T01:29:29;94610.06;;;23.36;37.65
21182;BME280;10749;46.296;7.524;2023-07-29T01:31:56;94607.94;;;23.38;37.66
21182;BME280;10749;46.296;7.524;2023-07-29T01:34:29;94605.75;;;23.30;37.96
21182;BME280;10749;46.296;7.524;2023-07-29T01:36:57;94602.78;;;23.31;37.69
21182;BME280;10749;46.296;7.524;2023-07-29T01:39:25;94595.47;;;23.27;37.41
21182;BME280;10749;46.296;7.524;2023-07-29T01:41:53;94599.78;;;23.23;37.80
21182;BME280;10749;46.296;7.524;2023-07-29T01:44:18;94601.38;;;23.24;37.60
21182;BME280;10749;46.296;7.524;2023-07-29T01:46:44;94600.88;;;23.27;37.22
21182;BME280;10749;46.296;7.524;2023-07-29T01:49:09;94598.72;;;23.29;37.11
21182;BME280;10749;46.296;7.524;2023-07-29T01:51:35;94599.28;;;23.31;37.13
21182;BME280;10749;46.296;7.524;2023-07-29T01:54:00;94598.47;;;23.30;37.41
21182;BME280;10749;46.296;7.524;2023-07-29T01:56:26;94604.94;;;23.29;37.75
21182;BME280;10749;46.296;7.524;2023-07-29T01:58:51;94597.91;;;23.28;36.89
21182;BME280;10749;46.296;7.524;2023-07-29T02:01:16;94609.50;;;23.29;36.85
21182;BME280;10749;46.296;7.524;2023-07-29T02:03:42;94610.88;;;23.26;37.51
21182;BME280;10749;46.296;7.524;2023-07-29T02:06:07;94609.78;;;23.22;37.45
21182;BME280;10749;46.296;7.524;2023-07-29T02:08:32;94611.66;;;23.22;37.92
21182;BME280;10749;46.296;7.524;2023-07-29T02:10:58;94623.00;;;23.24;37.81
21182;BME280;10749;46.296;7.524;2023-07-29T02:13:23;94624.34;;;23.21;38.17
21182;BME280;10749;46.296;7.524;2023-07-29T02:15:48;94623.81;;;23.24;37.02
21182;BME280;10749;46.296;7.524;2023-07-29T02:18:13;94619.47;;;23.18;36.46
21182;BME280;10749;46.296;7.524;2023-07-29T02:20:39;94611.34;;;23.13;36.54
21182;BME280;10749;46.296;7.524;2023-07-29T02:23:04;94596.78;;;23.14;37.18
21182;BME280;10749;46.296;7.524;2023-07-29T02:25:29;94603.50;;;23.12;37.97
21182;BME280;10749;46.296;7.524;2023-07-29T02:27:55;94606.19;;;23.12;38.23
21182;BME280;10749;46.296;7.524;2023-07-29T02:30:21;94605.09;;;23.08;38.67
21182;BME280;10749;46.296;7.524;2023-07-29T02:32:46;94608.59;;;23.08;38.54
21182;BME280;10749;46.296;7.524;2023-07-29T02:35:12;94608.28;;;22.99;39.14
21182;BME280;10749;46.296;7.524;2023-07-29T02:37:37;94600.19;;;22.99;38.38
21182;BME280;10749;46.296;7.524;2023-07-29T02:40:03;94603.44;;;22.96;37.81
21182;BME280;10749;46.296;7.524;2023-07-29T02:42:28;94599.63;;;22.92;37.83
21182;BME280;10749;46.296;7.524;2023-07-29T02:44:54;94604.78;;;22.99;37.74
21182;BME280;10749;46.296;7.524;2023-07-29T02:47:19;94607.25;;;23.06;37.31
21182;BME280;10749;46.296;7.524;2023-07-29T02:49:44;94608.91;;;23.12;37.92
21182;BME280;10749;46.296;7.524;2023-07-29T02:52:10;94612.44;;;23.17;37.96
21182;BME280;10749;46.296;7.524;2023-07-29T02:54:35;94593.28;;;23.19;38.49
21182;BME280;10749;46.296;7.524;2023-07-29T02:57:00;94596.00;;;23.19;38.60
21182;BME280;10749;46.296;7.524;2023-07-29T02:59:26;94593.81;;;23.21;38.47
21182;BME280;10749;46.296;7.524;2023-07-29T03:01:52;94601.66;;;23.22;38.69
21182;BME280;10749;46.296;7.524;2023-07-29T03:04:18;94603.03;;;23.25;38.60
21182;BME280;10749;46.296;7.524;2023-07-29T03:06:43;94594.38;;;23.23;38.65
21182;BME280;10749;46.296;7.524;2023-07-29T03:09:09;94605.19;;;23.23;38.18
21182;BME280;10749;46.296;7.524;2023-07-29T03:11:34;94613.28;;;23.23;38.40
21182;BME280;10749;46.296;7.524;2023-07-29T03:14:00;94623.00;;;23.24;37.90
21182;BME280;10749;46.296;7.524;2023-07-29T03:16:25;94633.75;;;23.14;37.50
21182;BME280;10749;46.296;7.524;2023-07-29T03:18:51;94650.97;;;23.08;38.23
21182;BME280;10749;46.296;7.524;2023-07-29T03:21:16;94678.13;;;22.91;39.29
21182;BME280;10749;46.296;7.524;2023-07-29T03:23:42;94686.94;;;22.76;39.25
21182;BME280;10749;46.296;7.524;2023-07-29T03:26:07;94692.16;;;22.61;39.22
21182;BME280;10749;46.296;7.524;2023-07-29T03:28:40;94681.94;;;22.63;40.14
21182;BME280;10749;46.296;7.524;2023-07-29T03:31:05;94677.66;;;22.67;40.90
21182;BME280;10749;46.296;7.524;2023-07-29T03:33:31;94680.97;;;22.69;40.66
21182;BME280;10749;46.296;7.524;2023-07-29T03:35:56;94672.75;;;22.59;41.17
21182;BME280;10749;46.296;7.524;2023-07-29T03:38:22;94682.38;;;22.50;40.92
21182;BME280;10749;46.296;7.524;2023-07-29T03:40:48;94675.22;;;22.34;41.43
21182;BME280;10749;46.296;7.524;2023-07-29T03:43:13;94688.72;;;22.34;41.64
21182;BME280;10749;46.296;7.524;2023-07-29T03:45:40;94677.84;;;22.24;42.55
21182;BME280;10749;46.296;7.524;2023-07-29T03:48:05;94675.59;;;22.16;42.86
21182;BME280;10749;46.296;7.524;2023-07-29T03:50:33;94671.53;;;22.13;43.41
21182;BME280;10749;46.296;7.524;2023-07-29T03:52:58;94678.25;;;22.11;43.36
21182;BME280;10749;46.296;7.524;2023-07-29T03:55:24;94694.44;;;22.11;43.11
21182;BME280;10749;46.296;7.524;2023-07-29T03:57:49;94691.75;;;22.11;42.90
21182;BME280;10749;46.296;7.524;2023-07-29T04:00:14;94688.00;;;22.17;42.91
21182;BME280;10749;46.296;7.524;2023-07-29T04:02:41;94698.19;;;22.09;43.62
21182;BME280;10749;46.296;7.524;2023-07-29T04:05:07;94699.19;;;22.03;44.16
21182;BME280;10749;46.296;7.524;2023-07-29T04:07:34;94699.16;;;21.98;43.96
21182;BME280;10749;46.296;7.524;2023-07-29T04:09:59;94696.94;;;21.95;43.69
21182;BME280;10749;46.296;7.524;2023-07-29T04:12:24;94699.94;;;21.99;42.99
21182;BME280;10749;46.296;7.524;2023-07-29T04:14:50;94700.06;;;21.87;44.13
21182;BME280;10749;46.296;7.524;2023-07-29T04:17:15;94697.63;;;21.86;43.75
21182;BME280;10749;46.296;7.524;2023-07-29T04:19:40;94695.34;;;21.94;43.39
21182;BME280;10749;46.296;7.524;2023-07-29T04:22:06;94699.00;;;21.88;44.45
21182;BME280;10749;46.296;7.524;2023-07-29T04:24:31;94707.09;;;21.88;43.79
21182;BME280;10749;46.296;7.524;2023-07-29T04:26:57;94695.19;;;21.84;43.35
21182;BME280;10749;46.296;7.524;2023-07-29T04:29:22;94703.72;;;21.76;44.00
21182;BME280;10749;46.296;7.524;2023-07-29T04:31:49;94718.69;;;21.67;44.75
21182;BME280;10749;46.296;7.524;2023-07-29T04:34:14;94724.06;;;21.67;44.64
21182;BME280;10749;46.296;7.524;2023-07-29T04:36:39;94708.50;;;21.69;43.63
21182;BME280;10749;46.296;7.524;2023-07-29T04:39:05;94714.06;;;21.62;42.15
21182;BME280;10749;46.296;7.524;2023-07-29T04:41:30;94716.00;;;21.67;42.30
21182;BME280;10749;46.296;7.524;2023-07-29T04:43:55;94718.69;;;21.67;43.08
21182;BME280;10749;46.296;7.524;2023-07-29T04:46:21;94712.75;;;21.65;44.21
21182;BME280;10749;46.296;7.524;2023-07-29T04:48:46;94718.88;;;21.60;44.24
21182;BME280;10749;46.296;7.524;2023-07-29T04:51:11;94718.63;;;21.62;44.74
21182;BME280;10749;46.296;7.524;2023-07-29T04:53:36;94720.25;;;21.63;44.89
21182;BME280;10749;46.296;7.524;2023-07-29T04:56:03;94717.63;;;21.68;44.34
21182;BME280;10749;46.296;7.524;2023-07-29T04:58:28;94721.69;;;21.71;44.14
21182;BME280;10749;46.296;7.524;2023-07-29T05:00:58;94720.31;;;21.68;44.52
21182;BME280;10749;46.296;7.524;2023-07-29T05:03:23;94716.00;;;21.67;44.69
21182;BME280;10749;46.296;7.524;2023-07-29T05:05:48;94721.31;;;21.62;45.12
21182;BME280;10749;46.296;7.524;2023-07-29T05:08:14;94725.41;;;21.64;44.98
21182;BME280;10749;46.296;7.524;2023-07-29T05:10:39;94725.63;;;21.63;45.10
21182;BME280;10749;46.296;7.524;2023-07-29T05:13:04;94721.28;;;21.57;45.17
21182;BME280;10749;46.296;7.524;2023-07-29T05:15:30;94724.44;;;21.54;45.55
21182;BME280;10749;46.296;7.524;2023-07-29T05:17:56;94731.47;;;21.55;45.65
21182;BME280;10749;46.296;7.524;2023-07-29T05:20:21;94731.53;;;21.60;45.02
21182;BME280;10749;46.296;7.524;2023-07-29T05:22:46;94730.84;;;21.70;45.11
21182;BME280;10749;46.296;7.524;2023-07-29T05:25:12;94739.78;;;21.75;43.60
21182;BME280;10749;46.296;7.524;2023-07-29T05:27:37;94738.16;;;21.74;44.55
21182;BME280;10749;46.296;7.524;2023-07-29T05:30:02;94725.56;;;21.80;44.56
21182;BME280;10749;46.296;7.524;2023-07-29T05:32:28;94729.09;;;21.80;45.32
21182;BME280;10749;46.296;7.524;2023-07-29T05:34:54;94734.72;;;21.79;45.68
21182;BME280;10749;46.296;7.524;2023-07-29T05:37:20;94733.09;;;21.78;45.82
21182;BME280;10749;46.296;7.524;2023-07-29T05:39:45;94729.66;;;21.82;45.43
21182;BME280;10749;46.296;7.524;2023-07-29T05:42:10;94733.22;;;21.88;45.58
21182;BME280;10749;46.296;7.524;2023-07-29T05:44:35;94734.19;;;21.98;45.61
21182;BME280;10749;46.296;7.524;2023-07-29T05:47:01;94737.50;;;22.05;45.88
21182;BME280;10749;46.296;7.524;2023-07-29T05:49:26;94734.28;;;22.08;46.28
21182;BME280;10749;46.296;7.524;2023-07-29T05:51:51;94739.72;;;22.14;45.84
21182;BME280;10749;46.296;7.524;2023-07-29T05:54:18;94744.66;;;22.22;45.53
21182;BME280;10749;46.296;7.524;2023-07-29T05:56:43;94741.53;;;22.30;45.46
21182;BME280;10749;46.296;7.524;2023-07-29T05:59:08;94748.31;;;22.37;45.49
21182;BME280;10749;46.296;7.524;2023-07-29T06:01:34;94763.81;;;22.47;45.54
21182;BME280;10749;46.296;7.524;2023-07-29T06:04:00;94762.28;;;22.56;45.36
21182;BME280;10749;46.296;7.524;2023-07-29T06:06:25;94755.03;;;22.62;45.57
21182;BME280;10749;46.296;7.524;2023-07-29T06:08:51;94759.13;;;22.64;45.69
21182;BME280;10749;46.296;7.524;2023-07-29T06:11:16;94755.34;;;22.65;45.51
21182;BME280;10749;46.296;7.524;2023-07-29T06:13:41;94755.34;;;22.65;45.72
21182;BME280;10749;46.296;7.524;2023-07-29T06:16:07;94749.44;;;22.68;45.48
21182;BME280;10749;46.296;7.524;2023-07-29T06:18:32;94746.16;;;22.66;45.84
21182;BME280;10749;46.296;7.524;2023-07-29T06:20:57;94745.72;;;22.74;45.89
21182;BME280;10749;46.296;7.524;2023-07-29T06:23:23;94748.44;;;22.74;46.17
21182;BME280;10749;46.296;7.524;2023-07-29T06:25:48;94744.13;;;22.78;46.49
21182;BME280;10749;46.296;7.524;2023-07-29T06:28:13;94736.69;;;22.90;45.32
21182;BME280;10749;46.296;7.524;2023-07-29T06:30:40;94734.59;;;22.97;45.59
21182;BME280;10749;46.296;7.524;2023-07-29T06:33:05;94733.63;;;23.14;45.27
21182;BME280;10749;46.296;7.524;2023-07-29T06:35:31;94736.38;;;23.24;45.33
21182;BME280;10749;46.296;7.524;2023-07-29T06:37:56;94735.88;;;23.32;45.44
21182;BME280;10749;46.296;7.524;2023-07-29T06:40:21;94727.28;;;23.40;45.46
21182;BME280;10749;46.296;7.524;2023-07-29T06:42:47;94735.41;;;23.40;45.66
21182;BME280;10749;46.296;7.524;2023-07-29T06:45:12;94730.00;;;23.40;45.12
21182;BME280;10749;46.296;7.524;2023-07-29T06:47:37;94730.53;;;23.37;44.29
21182;BME280;10749;46.296;7.524;2023-07-29T06:50:03;94731.88;;;23.34;44.38
21182;BME280;10749;46.296;7.524;2023-07-29T06:52:28;94730.53;;;23.37;43.88
21182;BME280;10749;46.296;7.524;2023-07-29T06:54:54;94727.84;;;23.42;44.75
21182;BME280;10749;46.296;7.524;2023-07-29T06:57:19;94722.28;;;23.54;44.83
21182;BME280;10749;46.296;7.524;2023-07-29T06:59:44;94724.47;;;23.62;44.95
21182;BME280;10749;46.296;7.524;2023-07-29T07:02:10;94727.75;;;23.74;44.99
21182;BME280;10749;46.296;7.524;2023-07-29T07:04:35;94729.16;;;23.81;45.22
21182;BME280;10749;46.296;7.524;2023-07-29T07:07:00;94726.44;;;23.81;45.02
21182;BME280;10749;46.296;7.524;2023-07-29T07:09:25;94731.34;;;23.84;44.98
21182;BME280;10749;46.296;7.524;2023-07-29T07:11:51;94724.31;;;23.83;45.64
21182;BME280;10749;46.296;7.524;2023-07-29T07:14:17;94731.06;;;23.91;44.98
21182;BME280;10749;46.296;7.524;2023-07-29T07:16:42;94716.78;;;23.96;45.24
21182;BME280;10749;46.296;7.524;2023-07-29T07:19:09;94710.81;;;23.99;44.82
21182;BME280;10749;46.296;7.524;2023-07-29T07:21:34;94714.63;;;24.03;44.52
21182;BME280;10749;46.296;7.524;2023-07-29T07:23:59;94714.13;;;24.06;44.52
21182;BME280;10749;46.296;7.524;2023-07-29T07:26:25;94703.53;;;23.99;44.66
21182;BME280;10749;46.296;7.524;2023-07-29T07:28:50;94703.28;;;24.11;44.84
21182;BME280;10749;46.296;7.524;2023-07-29T07:31:16;94701.72;;;24.20;44.80
21182;BME280;10749;46.296;7.524;2023-07-29T07:33:41;94700.66;;;24.26;44.61
21182;BME280;10749;46.296;7.524;2023-07-29T07:36:07;94693.91;;;24.28;44.80
21182;BME280;10749;46.296;7.524;2023-07-29T07:38:32;94703.38;;;24.26;44.92
21182;BME280;10749;46.296;7.524;2023-07-29T07:40:58;94692.81;;;24.24;44.77
21182;BME280;10749;46.296;7.524;2023-07-29T07:43:23;94697.41;;;24.24;45.21
21182;BME280;10749;46.296;7.524;2023-07-29T07:45:49;94703.38;;;24.21;45.00
21182;BME280;10749;46.296;7.524;2023-07-29T07:48:14;94695.50;;;24.19;44.95
21182;BME280;10749;46.296;7.524;2023-07-29T07:50:41;94694.66;;;24.14;45.18
21182;BME280;10749;46.296;7.524;2023-07-29T07:53:07;94697.38;;;24.14;44.85
21182;BME280;10749;46.296;7.524;2023-07-29T07:55:32;94706.00;;;24.11;45.46
21182;BME280;10749;46.296;7.524;2023-07-29T07:57:57;94711.97;;;24.13;45.39
21182;BME280;10749;46.296;7.524;2023-07-29T08:00:23;94708.19;;;24.14;45.31
21182;BME280;10749;46.296;7.524;2023-07-29T08:02:48;94699.50;;;24.12;45.32
21182;BME280;10749;46.296;7.524;2023-07-29T08:05:13;94710.34;;;24.12;45.31
21182;BME280;10749;46.296;7.524;2023-07-29T08:07:38;94716.56;;;24.12;44.90
21182;BME280;10749;46.296;7.524;2023-07-29T08:10:04;94710.13;;;24.18;44.96
21182;BME280;10749;46.296;7.524;2023-07-29T08:12:30;94715.00;;;24.21;44.84
21182;BME280;10749;46.296;7.524;2023-07-29T08:14:55;94705.81;;;24.22;45.21
21182;BME280;10749;46.296;7.524;2023-07-29T08:17:21;94694.44;;;24.25;45.11
21182;BME280;10749;46.296;7.524;2023-07-29T08:19:46;94700.66;;;24.26;45.05
21182;BME280;10749;46.296;7.524;2023-07-29T08:22:11;94685.78;;;24.23;45.14
21182;BME280;10749;46.296;7.524;2023-07-29T08:24:36;94689.59;;;24.32;45.05
21182;BME280;10749;46.296;7.524;2023-07-29T08:27:02;94687.97;;;24.42;45.20
21182;BME280;10749;46.296;7.524;2023-07-29T08:29:27;94688.78;;;24.52;45.01
21182;BME280;10749;46.296;7.524;2023-07-29T08:31:52;94683.41;;;24.62;45.07
21182;BME280;10749;46.296;7.524;2023-07-29T08:34:18;94675.53;;;24.71;44.98
21182;BME280;10749;46.296;7.524;2023-07-29T08:36:43;94668.22;;;24.76;44.72
21182;BME280;10749;46.296;7.524;2023-07-29T08:39:08;94679.34;;;24.80;44.80
21182;BME280;10749;46.296;7.524;2023-07-29T08:44:26;94677.72;;;24.89;44.75
21182;BME280;10749;46.296;7.524;2023-07-29T08:46:52;94674.47;;;24.87;44.93
21182;BME280;10749;46.296;7.524;2023-07-29T08:49:19;94673.13;;;24.90;44.98
21182;BME280;10749;46.296;7.524;2023-07-29T08:51:47;94671.75;;;24.82;44.78
21182;BME280;10749;46.296;7.524;2023-07-29T08:54:13;94677.97;;;24.82;45.03
21182;BME280;10749;46.296;7.524;2023-07-29T08:56:41;94674.19;;;24.78;44.88
21182;BME280;10749;46.296;7.524;2023-07-29T08:59:07;94665.50;;;24.81;44.94
21182;BME280;10749;46.296;7.524;2023-07-29T09:01:33;94657.44;;;24.87;44.65
21182;BME280;10749;46.296;7.524;2023-07-29T09:03:59;94660.13;;;24.92;44.63
21182;BME280;10749;46.296;7.524;2023-07-29T09:06:24;94654.97;;;24.95;44.92
21182;BME280;10749;46.296;7.524;2023-07-29T09:08:54;94657.94;;;25.04;44.58
21182;BME280;10749;46.296;7.524;2023-07-29T09:11:21;94650.91;;;25.08;44.68
21182;BME280;10749;46.296;7.524;2023-07-29T09:13:46;94649.56;;;25.05;44.65
21182;BME280;10749;46.296;7.524;2023-07-29T09:16:13;94649.81;;;25.04;44.45
21182;BME280;10749;46.296;7.524;2023-07-29T09:18:38;94657.69;;;25.05;44.68
21182;BME280;10749;46.296;7.524;2023-07-29T09:21:04;94652.53;;;25.09;44.58
21182;BME280;10749;46.296;7.524;2023-07-29T09:23:39;94658.19;;;25.12;44.47
21182;BME280;10749;46.296;7.524;2023-07-29T09:26:05;94663.06;;;25.15;44.52
21182;BME280;10749;46.296;7.524;2023-07-29T09:28:35;94665.50;;;25.12;44.24
21182;BME280;10749;46.296;7.524;2023-07-29T09:31:00;94662.00;;;25.01;43.98
21182;BME280;10749;46.296;7.524;2023-07-29T09:33:26;94681.25;;;25.00;43.92
21182;BME280;10749;46.296;7.524;2023-07-29T09:35:52;94687.72;;;24.99;44.05
21182;BME280;10749;46.296;7.524;2023-07-29T09:38:17;94698.56;;;24.99;44.20
21182;BME280;10749;46.296;7.524;2023-07-29T09:40:42;94711.53;;;25.02;43.98
21182;BME280;10749;46.296;7.524;2023-07-29T09:43:10;94722.41;;;24.97;44.51
21182;BME280;10749;46.296;7.524;2023-07-29T09:45:37;94733.22;;;24.87;44.44
21182;BME280;10749;46.296;7.524;2023-07-29T09:48:04;94736.41;;;24.58;44.20
21182;BME280;10749;46.296;7.524;2023-07-29T09:50:30;94740.16;;;24.37;45.04
21182;BME280;10749;46.296;7.524;2023-07-29T09:52:56;94744.22;;;24.29;45.75
21182;BME280;10749;46.296;7.524;2023-07-29T09:55:25;94745.25;;;24.23;46.32
21182;BME280;10749;46.296;7.524;2023-07-29T09:57:57;94745.53;;;24.27;45.88
21182;BME280;10749;46.296;7.524;2023-07-29T10:00:30;94744.22;;;24.29;45.03
21182;BME280;10749;46.296;7.524;2023-07-29T10:02:57;94753.66;;;24.27;44.84
21182;BME280;10749;46.296;7.524;2023-07-29T10:05:25;94753.13;;;24.25;44.83
21182;BME280;10749;46.296;7.524;2023-07-29T10:07:51;94756.91;;;24.24;45.10
21182;BME280;10749;46.296;7.524;2023-07-29T10:10:17;94753.66;;;24.22;45.71
21182;BME280;10749;46.296;7.524;2023-07-29T10:12:43;94759.06;;;24.22;46.43
21182;BME280;10749;46.296;7.524;2023-07-29T10:15:09;94767.16;;;24.17;46.54
21182;BME280;10749;46.296;7.524;2023-07-29T10:17:36;94772.25;;;24.13;46.73
21182;BME280;10749;46.296;7.524;2023-07-29T10:20:10;94782.22;;;24.08;47.21
21182;BME280;10749;46.296;7.524;2023-07-29T10:22:40;94793.59;;;24.10;46.90
21182;BME280;10749;46.296;7.524;2023-07-29T10:25:19;94807.41;;;24.13;46.22
21182;BME280;10749;46.296;7.524;2023-07-29T10:27:56;94805.53;;;24.14;46.83
21182;BME280;10749;46.296;7.524;2023-07-29T10:30:28;94817.13;;;24.09;46.06
21182;BME280;10749;46.296;7.524;2023-07-29T10:32:54;94820.31;;;23.96;46.55
21182;BME280;10749;46.296;7.524;2023-07-29T10:35:23;94827.34;;;23.97;46.77
21182;BME280;10749;46.296;7.524;2023-07-29T10:37:48;94821.13;;;23.97;47.26
21182;BME280;10749;46.296;7.524;2023-07-29T10:40:16;94827.06;;;23.99;47.32
21182;BME280;10749;46.296;7.524;2023-07-29T10:43:00;94825.50;;;24.08;47.34
21182;BME280;10749;46.296;7.524;2023-07-29T10:45:36;94832.25;;;24.10;47.49
21182;BME280;10749;46.296;7.524;2023-07-29T10:48:05;94839.25;;;24.06;46.45
21182;BME280;10749;46.296;7.524;2023-07-29T10:50:31;94829.78;;;24.04;46.46
21182;BME280;10749;46.296;7.524;2023-07-29T10:52:56;94821.41;;;24.00;46.47
21182;BME280;10749;46.296;7.524;2023-07-29T10:57:49;94828.66;;;23.95;45.76
21182;BME280;10749;46.296;7.524;2023-07-29T11:00:15;94829.72;;;23.88;46.12
21182;BME280;10749;46.296;7.524;2023-07-29T11:02:41;94829.16;;;23.86;46.77
21182;BME280;10749;46.296;7.524;2023-07-29T11:05:15;94813.50;;;23.88;46.86
21182;BME280;10749;46.296;7.524;2023-07-29T11:07:45;94832.44;;;23.93;47.80
21182;BME280;10749;46.296;7.524;2023-07-29T11:10:11;94823.84;;;24.02;47.11
21182;BME280;10749;46.296;7.524;2023-07-29T11:12:48;94822.53;;;24.09;47.42
21182;BME280;10749;46.296;7.524;2023-07-29T11:15:20;94826.66;;;24.17;47.37
21182;BME280;10749;46.296;7.524;2023-07-29T11:17:48;94825.06;;;24.26;47.37
21182;BME280;10749;46.296;7.524;2023-07-29T11:20:16;94823.44;;;24.35;47.71
21182;BME280;10749;46.296;7.524;2023-07-29T11:22:41;94821.59;;;24.41;47.52
21182;BME280;10749;46.296;7.524;2023-07-29T11:25:09;94817.28;;;24.45;47.56
21182;BME280;10749;46.296;7.524;2023-07-29T11:27:35;94808.91;;;24.46;47.59
21182;BME280;10749;46.296;7.524;2023-07-29T11:30:03;94810.50;;;24.42;47.91
21182;BME280;10749;46.296;7.524;2023-07-29T11:32:30;94796.72;;;24.39;48.26
21182;BME280;10749;46.296;7.524;2023-07-29T11:34:56;94790.75;;;24.42;47.82
21182;BME280;10749;46.296;7.524;2023-07-29T11:37:21;94783.44;;;24.37;48.40
21182;BME280;10749;46.296;7.524;2023-07-29T11:39:47;94787.19;;;24.31;48.19
21182;BME280;10749;46.296;7.524;2023-07-29T11:42:15;94795.84;;;24.28;47.93
21182;BME280;10749;46.296;7.524;2023-07-29T11:44:41;94796.13;;;24.26;47.68
21182;BME280;10749;46.296;7.524;2023-07-29T11:47:10;94794.22;;;24.27;47.77
21182;BME280;10749;46.296;7.524;2023-07-29T11:49:38;94793.16;;;24.28;48.25
21182;BME280;10749;46.296;7.524;2023-07-29T11:52:06;94802.34;;;24.27;48.39
21182;BME280;10749;46.296;7.524;2023-07-29T11:54:31;94810.19;;;24.28;48.48
21182;BME280;10749;46.296;7.524;2023-07-29T11:56:57;94811.53;;;24.26;48.32
21182;BME280;10749;46.296;7.524;2023-07-29T11:59:23;94815.34;;;24.30;48.46
21182;BME280;10749;46.296;7.524;2023-07-29T12:01:48;94810.19;;;24.28;48.77
21182;BME280;10749;46.296;7.524;2023-07-29T12:04:14;94815.06;;;24.31;47.63
21182;BME280;10749;46.296;7.524;2023-07-29T12:06:40;94826.44;;;24.33;47.95
21182;BME280;10749;46.296;7.524;2023-07-29T12:09:06;94824.53;;;24.29;48.40
21182;BME280;10749;46.296;7.524;2023-07-29T12:11:32;94824.25;;;24.25;48.48
21182;BME280;10749;46.296;7.524;2023-07-29T12:13:59;94832.66;;;24.34;48.56
21182;BME280;10749;46.296;7.524;2023-07-29T12:16:25;94841.31;;;24.36;48.53
21182;BME280;10749;46.296;7.524;2023-07-29T12:18:50;94846.22;;;24.39;48.62
21182;BME280;10749;46.296;7.524;2023-07-29T12:21:17;94849.72;;;24.34;48.58
21182;BME280;10749;46.296;7.524;2023-07-29T12:23:43;94854.31;;;24.34;48.99
21182;BME280;10749;46.296;7.524;2023-07-29T12:26:08;94851.59;;;24.34;48.97
21182;BME280;10749;46.296;7.524;2023-07-29T12:28:34;94853.75;;;24.37;49.02
21182;BME280;10749;46.296;7.524;2023-07-29T12:30:59;94853.75;;;24.37;49.12
21182;BME280;10749;46.296;7.524;2023-07-29T12:33:32;94863.50;;;24.33;49.21
21182;BME280;10749;46.296;7.524;2023-07-29T12:35:58;94864.53;;;24.27;49.95
21182;BME280;10749;46.296;7.524;2023-07-29T12:38:25;94865.91;;;24.29;49.45
21182;BME280;10749;46.296;7.524;2023-07-29T12:40:51;94875.88;;;24.24;49.16
21182;BME280;10749;46.296;7.524;2023-07-29T12:43:16;94876.59;;;24.14;49.12
21182;BME280;10749;46.296;7.524;2023-07-29T12:45:42;94873.91;;;24.09;49.34
21182;BME280;10749;46.296;7.524;2023-07-29T12:48:10;94880.31;;;23.98;49.46
21182;BME280;10749;46.296;7.524;2023-07-29T12:50:36;94868.66;;;23.92;48.98
21182;BME280;10749;46.296;7.524;2023-07-29T12:53:02;94867.31;;;23.95;49.84
21182;BME280;10749;46.296;7.524;2023-07-29T12:55:27;94864.13;;;24.03;49.80
21182;BME280;10749;46.296;7.524;2023-07-29T12:57:52;94872.78;;;24.05;48.99
21182;BME280;10749;46.296;7.524;2023-07-29T13:00:18;94875.75;;;24.04;48.57
21182;BME280;10749;46.296;7.524;2023-07-29T13:02:43;94881.41;;;23.97;48.73
21182;BME280;10749;46.296;7.524;2023-07-29T13:05:10;94882.44;;;23.91;49.30
21182;BME280;10749;46.296;7.524;2023-07-29T13:07:39;94886.72;;;23.87;48.66